Beverly, Ohio
Current Conditions -  °F | °C
As of 11:53 AM on Tuesday 27 Jan 2015 (Local Time) from KPKB Reporting Station
Haze Haze  
Wind Chill: 16°   Ceiling: 2200
Heat Index: 22°   Visibility: 6mi
Dew Point: 12°   Wind: 5mph
Humidity: 66%   Direction: 340°NNW
Pressure: 30.04"   Gusts: NA
Location:  39.55°N, 81.64°W
Report Text: KPKB 271653Z 34004KT 6SM HZ BKN022 OVC027 M06/M11 A3004 RMK AO2 SNB08E31 SLP182 P0000 T10561111
Loading
Personal Weather Stations






























Interactive Weather Map New forecast layout! Learn more

10-Day Weather Forecast

Advertisements
Track Severe Weather on mobile